Terminal Aerodrome Forecast
Issued by NWS

Home | Current Version | Previous Version | Text Only | Print | Product List | Glossary On
Versions: 1 2 3 4 5 6 7 8 9 10 11 12 13 14 15 16
000
FTUS41 KBOX 311736
TAFBAF
TAF
KBAF 311736Z 3118/0118 23007KT P6SM VCSH OVC090
     FM010100 VRB03KT P6SM VCSH BKN050
     FM010600 00000KT 3SM BR VCSH BKN030
     FM011300 00000KT P6SM VCSH OVC050=

USA.gov is the U.S. government's official web portal to all federal, state and local government web resources and services.